sensor_id;sensor_type;location;lat;lon;timestamp;pressure;altitude;pressure_sealevel;temperature;humidity
84683;BME280;74905;44.124;18.116;2023-12-20T00:00:08;97584.78;;;-1.55;85.81
84683;BME280;74905;44.124;18.116;2023-12-20T00:02:34;97583.31;;;-1.56;86.09
84683;BME280;74905;44.124;18.116;2023-12-20T00:05:00;97583.75;;;-1.52;86.48
84683;BME280;74905;44.124;18.116;2023-12-20T00:07:25;97581.53;;;-1.54;86.07
84683;BME280;74905;44.124;18.116;2023-12-20T00:09:52;97567.16;;;-1.54;86.61
84683;BME280;74905;44.124;18.116;2023-12-20T00:12:18;97571.78;;;-1.62;85.60
84683;BME280;74905;44.124;18.116;2023-12-20T00:14:43;97569.66;;;-1.56;85.68
84683;BME280;74905;44.124;18.116;2023-12-20T00:17:09;97566.53;;;-1.60;85.70
84683;BME280;74905;44.124;18.116;2023-12-20T00:19:35;97566.81;;;-1.51;85.73
84683;BME280;74905;44.124;18.116;2023-12-20T00:22:00;97559.34;;;-1.50;85.39
84683;BME280;74905;44.124;18.116;2023-12-20T00:24:26;97567.16;;;-1.54;85.27
84683;BME280;74905;44.124;18.116;2023-12-20T00:26:51;97571.28;;;-1.61;85.25
84683;BME280;74905;44.124;18.116;2023-12-20T00:29:17;97564.13;;;-1.64;85.45
84683;BME280;74905;44.124;18.116;2023-12-20T00:31:42;97563.78;;;-1.60;85.63
84683;BME280;74905;44.124;18.116;2023-12-20T00:34:08;97552.16;;;-1.61;85.58
84683;BME280;74905;44.124;18.116;2023-12-20T00:36:34;97543.44;;;-1.59;85.97
84683;BME280;74905;44.124;18.116;2023-12-20T00:38:59;97547.41;;;-1.60;85.71
84683;BME280;74905;44.124;18.116;2023-12-20T00:41:25;97549.31;;;-1.55;85.42
84683;BME280;74905;44.124;18.116;2023-12-20T00:43:51;97542.38;;;-1.56;85.97
84683;BME280;74905;44.124;18.116;2023-12-20T00:46:16;97536.91;;;-1.56;85.83
84683;BME280;74905;44.124;18.116;2023-12-20T00:48:42;97541.03;;;-1.63;85.47
84683;BME280;74905;44.124;18.116;2023-12-20T00:51:08;97533.91;;;-1.66;85.61
84683;BME280;74905;44.124;18.116;2023-12-20T00:53:34;97529.19;;;-1.65;85.73
84683;BME280;74905;44.124;18.116;2023-12-20T00:56:00;97532.13;;;-1.63;85.48
84683;BME280;74905;44.124;18.116;2023-12-20T00:58:25;97526.25;;;-1.67;85.87
84683;BME280;74905;44.124;18.116;2023-12-20T01:00:53;97532.34;;;-1.61;85.78
84683;BME280;74905;44.124;18.116;2023-12-20T01:03:47;97527.41;;;-1.63;85.79
84683;BME280;74905;44.124;18.116;2023-12-20T01:06:13;97516.34;;;-1.57;85.48
84683;BME280;74905;44.124;18.116;2023-12-20T01:08:39;97504.91;;;-1.56;85.29
84683;BME280;74905;44.124;18.116;2023-12-20T01:11:05;97508.69;;;-1.59;85.47
84683;BME280;74905;44.124;18.116;2023-12-20T01:13:31;97507.50;;;-1.50;85.95
84683;BME280;74905;44.124;18.116;2023-12-20T01:15:56;97505.59;;;-1.42;85.72
84683;BME280;74905;44.124;18.116;2023-12-20T01:18:54;97502.13;;;-1.22;84.88
84683;BME280;74905;44.124;18.116;2023-12-20T01:21:20;97497.38;;;-1.00;84.31
84683;BME280;74905;44.124;18.116;2023-12-20T01:23:45;97497.09;;;-0.89;83.99
84683;BME280;74905;44.124;18.116;2023-12-20T01:26:29;97490.69;;;-0.92;83.17
84683;BME280;74905;44.124;18.116;2023-12-20T01:28:55;97495.91;;;-1.01;83.22
84683;BME280;74905;44.124;18.116;2023-12-20T01:31:39;97491.28;;;-1.35;83.89
84683;BME280;74905;44.124;18.116;2023-12-20T01:34:24;97483.94;;;-1.40;84.35
84683;BME280;74905;44.124;18.116;2023-12-20T01:36:49;97474.97;;;-1.48;84.43
84683;BME280;74905;44.124;18.116;2023-12-20T01:39:15;97478.81;;;-1.64;84.85
84683;BME280;74905;44.124;18.116;2023-12-20T01:48:24;97456.13;;;-1.80;85.81
84683;BME280;74905;44.124;18.116;2023-12-20T01:50:51;97447.53;;;-1.84;85.88
84683;BME280;74905;44.124;18.116;2023-12-20T01:53:43;97446.66;;;-1.79;85.67
84683;BME280;74905;44.124;18.116;2023-12-20T01:56:09;97442.53;;;-1.72;86.27
84683;BME280;74905;44.124;18.116;2023-12-20T01:58:39;97439.63;;;-1.74;85.83
84683;BME280;74905;44.124;18.116;2023-12-20T02:01:09;97450.22;;;-1.71;86.37
84683;BME280;74905;44.124;18.116;2023-12-20T02:03:35;97443.13;;;-1.66;86.06
84683;BME280;74905;44.124;18.116;2023-12-20T02:06:03;97444.34;;;-1.75;85.56
84683;BME280;74905;44.124;18.116;2023-12-20T02:08:29;97436.19;;;-1.88;85.66
84683;BME280;74905;44.124;18.116;2023-12-20T02:10:58;97439.47;;;-1.90;86.37
84683;BME280;74905;44.124;18.116;2023-12-20T02:13:47;97430.34;;;-1.92;86.13
84683;BME280;74905;44.124;18.116;2023-12-20T02:16:19;97424.38;;;-1.91;86.54
84683;BME280;74905;44.124;18.116;2023-12-20T02:18:45;97422.03;;;-1.87;86.72
84683;BME280;74905;44.124;18.116;2023-12-20T02:21:10;97413.91;;;-1.79;86.75
84683;BME280;74905;44.124;18.116;2023-12-20T02:23:43;97407.94;;;-1.77;86.45
84683;BME280;74905;44.124;18.116;2023-12-20T02:26:08;97407.94;;;-1.77;86.10
84683;BME280;74905;44.124;18.116;2023-12-20T02:28:34;97400.28;;;-1.79;86.03
84683;BME280;74905;44.124;18.116;2023-12-20T02:31:00;97394.28;;;-1.77;86.00
84683;BME280;74905;44.124;18.116;2023-12-20T02:33:26;97390.72;;;-1.72;86.16
84683;BME280;74905;44.124;18.116;2023-12-20T02:35:51;97388.56;;;-1.66;86.07
84683;BME280;74905;44.124;18.116;2023-12-20T02:38:18;97394.75;;;-1.66;86.08
84683;BME280;74905;44.124;18.116;2023-12-20T02:40:43;97392.44;;;-1.62;85.33
84683;BME280;74905;44.124;18.116;2023-12-20T02:43:09;97386.91;;;-1.69;85.34
84683;BME280;74905;44.124;18.116;2023-12-20T02:45:34;97381.44;;;-1.69;85.77
84683;BME280;74905;44.124;18.116;2023-12-20T02:48:00;97378.53;;;-1.71;85.56
84683;BME280;74905;44.124;18.116;2023-12-20T02:50:26;97375.59;;;-1.73;84.67
84683;BME280;74905;44.124;18.116;2023-12-20T02:52:51;97374.94;;;-1.87;85.54
84683;BME280;74905;44.124;18.116;2023-12-20T02:55:17;97371.16;;;-1.84;85.41
84683;BME280;74905;44.124;18.116;2023-12-20T02:57:42;97365.16;;;-1.82;85.20
84683;BME280;74905;44.124;18.116;2023-12-20T03:00:09;97360.03;;;-1.86;85.19
84683;BME280;74905;44.124;18.116;2023-12-20T03:02:35;97363.28;;;-1.88;84.74
84683;BME280;74905;44.124;18.116;2023-12-20T03:05:01;97354.19;;;-1.90;84.83
84683;BME280;74905;44.124;18.116;2023-12-20T03:07:27;97350.25;;;-2.02;85.16
84683;BME280;74905;44.124;18.116;2023-12-20T03:09:52;97353.50;;;-2.04;85.47
84683;BME280;74905;44.124;18.116;2023-12-20T03:12:18;97358.38;;;-2.10;85.20
84683;BME280;74905;44.124;18.116;2023-12-20T03:14:44;97356.97;;;-2.03;85.77
84683;BME280;74905;44.124;18.116;2023-12-20T03:17:10;97352.84;;;-1.97;85.86
84683;BME280;74905;44.124;18.116;2023-12-20T03:19:35;97349.72;;;-2.01;85.45
84683;BME280;74905;44.124;18.116;2023-12-20T03:22:01;97355.19;;;-2.01;84.81
84683;BME280;74905;44.124;18.116;2023-12-20T03:24:27;97342.94;;;-2.07;85.48
84683;BME280;74905;44.124;18.116;2023-12-20T03:26:53;97342.34;;;-2.13;85.38
84683;BME280;74905;44.124;18.116;2023-12-20T03:29:18;97341.41;;;-2.16;85.45
84683;BME280;74905;44.124;18.116;2023-12-20T03:31:44;97336.16;;;-2.14;86.24
84683;BME280;74905;44.124;18.116;2023-12-20T03:34:11;97335.94;;;-2.16;86.18
84683;BME280;74905;44.124;18.116;2023-12-20T03:36:37;97340.03;;;-2.09;86.40
84683;BME280;74905;44.124;18.116;2023-12-20T03:39:03;97337.31;;;-2.09;85.58
84683;BME280;74905;44.124;18.116;2023-12-20T03:41:28;97329.84;;;-2.09;85.65
84683;BME280;74905;44.124;18.116;2023-12-20T03:43:54;97331.19;;;-2.02;85.38
84683;BME280;74905;44.124;18.116;2023-12-20T03:46:19;97329.66;;;-2.11;85.53
84683;BME280;74905;44.124;18.116;2023-12-20T03:48:45;97323.03;;;-2.15;85.50
84683;BME280;74905;44.124;18.116;2023-12-20T03:51:11;97330.50;;;-2.16;85.69
84683;BME280;74905;44.124;18.116;2023-12-20T03:53:36;97321.66;;;-2.09;85.90
84683;BME280;74905;44.124;18.116;2023-12-20T03:56:02;97326.19;;;-2.11;85.47
84683;BME280;74905;44.124;18.116;2023-12-20T03:58:29;97310.69;;;-2.16;85.68
84683;BME280;74905;44.124;18.116;2023-12-20T04:00:54;97312.66;;;-2.17;85.48
84683;BME280;74905;44.124;18.116;2023-12-20T04:03:20;97307.22;;;-2.17;85.66
84683;BME280;74905;44.124;18.116;2023-12-20T04:05:45;97308.88;;;-2.14;85.70
84683;BME280;74905;44.124;18.116;2023-12-20T04:08:11;97314.88;;;-2.15;85.77
84683;BME280;74905;44.124;18.116;2023-12-20T04:10:37;97301.13;;;-2.10;85.17
84683;BME280;74905;44.124;18.116;2023-12-20T04:13:03;97317.47;;;-2.10;85.18
84683;BME280;74905;44.124;18.116;2023-12-20T04:15:29;97305.38;;;-2.22;85.21
84683;BME280;74905;44.124;18.116;2023-12-20T04:17:54;97305.78;;;-2.18;85.23
84683;BME280;74905;44.124;18.116;2023-12-20T04:20:20;97300.91;;;-2.12;86.03
84683;BME280;74905;44.124;18.116;2023-12-20T04:22:45;97288.88;;;-2.16;85.25
84683;BME280;74905;44.124;18.116;2023-12-20T04:25:11;97287.97;;;-2.19;85.61
84683;BME280;74905;44.124;18.116;2023-12-20T04:27:37;97283.63;;;-2.14;85.64
84683;BME280;74905;44.124;18.116;2023-12-20T04:30:06;97290.75;;;-2.11;85.25
84683;BME280;74905;44.124;18.116;2023-12-20T04:32:33;97294.66;;;-2.20;85.13
84683;BME280;74905;44.124;18.116;2023-12-20T04:34:58;97293.00;;;-2.23;85.07
84683;BME280;74905;44.124;18.116;2023-12-20T04:37:24;97291.53;;;-2.24;85.43
84683;BME280;74905;44.124;18.116;2023-12-20T04:39:50;97290.28;;;-2.23;85.59
84683;BME280;74905;44.124;18.116;2023-12-20T04:42:16;97293.22;;;-2.21;85.45
84683;BME280;74905;44.124;18.116;2023-12-20T04:44:41;97278.53;;;-2.18;85.65
84683;BME280;74905;44.124;18.116;2023-12-20T04:47:09;97287.59;;;-2.15;84.98
84683;BME280;74905;44.124;18.116;2023-12-20T04:49:34;97286.13;;;-2.16;85.02
84683;BME280;74905;44.124;18.116;2023-12-20T04:52:00;97289.06;;;-2.14;85.30
84683;BME280;74905;44.124;18.116;2023-12-20T04:54:25;97283.41;;;-2.16;84.69
84683;BME280;74905;44.124;18.116;2023-12-20T04:56:51;97279.06;;;-2.19;85.01
84683;BME280;74905;44.124;18.116;2023-12-20T04:59:16;97270.88;;;-2.19;85.05
84683;BME280;74905;44.124;18.116;2023-12-20T05:01:42;97278.53;;;-2.18;85.15
84683;BME280;74905;44.124;18.116;2023-12-20T05:04:08;97272.72;;;-2.14;85.26
84683;BME280;74905;44.124;18.116;2023-12-20T05:06:33;97282.16;;;-2.15;85.14
84683;BME280;74905;44.124;18.116;2023-12-20T05:08:59;97280.03;;;-2.09;85.01
84683;BME280;74905;44.124;18.116;2023-12-20T05:11:24;97273.44;;;-2.14;85.06
84683;BME280;74905;44.124;18.116;2023-12-20T05:13:50;97271.13;;;-2.10;85.15
84683;BME280;74905;44.124;18.116;2023-12-20T05:16:16;97268.41;;;-2.10;84.28
84683;BME280;74905;44.124;18.116;2023-12-20T05:18:44;97271.66;;;-2.11;84.53
84683;BME280;74905;44.124;18.116;2023-12-20T05:21:10;97278.13;;;-2.22;84.15
84683;BME280;74905;44.124;18.116;2023-12-20T05:23:35;97273.34;;;-2.29;84.62
84683;BME280;74905;44.124;18.116;2023-12-20T05:26:01;97270.41;;;-2.31;84.63
84683;BME280;74905;44.124;18.116;2023-12-20T05:28:27;97268.13;;;-2.40;84.85
84683;BME280;74905;44.124;18.116;2023-12-20T05:30:53;97280.88;;;-2.35;85.00
84683;BME280;74905;44.124;18.116;2023-12-20T05:33:19;97266.00;;;-2.34;84.81
84683;BME280;74905;44.124;18.116;2023-12-20T05:35:45;97267.88;;;-2.29;85.09
84683;BME280;74905;44.124;18.116;2023-12-20T05:38:10;97274.78;;;-2.28;84.52
84683;BME280;74905;44.124;18.116;2023-12-20T05:40:36;97275.84;;;-2.31;84.56
84683;BME280;74905;44.124;18.116;2023-12-20T05:43:02;97270.66;;;-2.42;84.80
84683;BME280;74905;44.124;18.116;2023-12-20T05:45:28;97260.16;;;-2.38;84.86
84683;BME280;74905;44.124;18.116;2023-12-20T05:47:53;97267.41;;;-2.41;84.77
84683;BME280;74905;44.124;18.116;2023-12-20T05:50:19;97262.69;;;-2.40;85.07
84683;BME280;74905;44.124;18.116;2023-12-20T05:52:45;97267.19;;;-2.43;85.23
84683;BME280;74905;44.124;18.116;2023-12-20T05:55:10;97260.81;;;-2.45;85.26
84683;BME280;74905;44.124;18.116;2023-12-20T05:57:36;97260.38;;;-2.36;85.42
84683;BME280;74905;44.124;18.116;2023-12-20T06:00:02;97262.22;;;-2.31;85.26
84683;BME280;74905;44.124;18.116;2023-12-20T06:02:37;97252.19;;;-2.36;84.77
84683;BME280;74905;44.124;18.116;2023-12-20T06:05:04;97244.41;;;-2.32;85.01
84683;BME280;74905;44.124;18.116;2023-12-20T06:07:30;97240.94;;;-2.33;84.11
84683;BME280;74905;44.124;18.116;2023-12-20T06:09:56;97235.84;;;-2.36;85.21
84683;BME280;74905;44.124;18.116;2023-12-20T06:12:21;97233.66;;;-2.38;84.27
84683;BME280;74905;44.124;18.116;2023-12-20T06:14:47;97233.97;;;-2.41;84.82
84683;BME280;74905;44.124;18.116;2023-12-20T06:17:13;97230.19;;;-2.38;84.90
84683;BME280;74905;44.124;18.116;2023-12-20T06:19:39;97228.47;;;-2.28;84.89
84683;BME280;74905;44.124;18.116;2023-12-20T06:22:05;97228.31;;;-2.22;84.28
84683;BME280;74905;44.124;18.116;2023-12-20T06:24:30;97232.09;;;-2.26;83.97
84683;BME280;74905;44.124;18.116;2023-12-20T06:26:59;97227.59;;;-2.23;83.67
84683;BME280;74905;44.124;18.116;2023-12-20T06:29:25;97224.91;;;-2.15;83.37
84683;BME280;74905;44.124;18.116;2023-12-20T06:31:51;97223.28;;;-2.18;82.55
84683;BME280;74905;44.124;18.116;2023-12-20T06:34:16;97226.47;;;-2.28;82.85
84683;BME280;74905;44.124;18.116;2023-12-20T06:36:42;97222.81;;;-2.30;82.63
84683;BME280;74905;44.124;18.116;2023-12-20T06:39:08;97227.69;;;-2.36;82.74
84683;BME280;74905;44.124;18.116;2023-12-20T06:41:37;97222.06;;;-2.51;83.26
84683;BME280;74905;44.124;18.116;2023-12-20T06:44:02;97228.41;;;-2.56;83.98
84683;BME280;74905;44.124;18.116;2023-12-20T06:46:28;97226.06;;;-2.52;83.94
84683;BME280;74905;44.124;18.116;2023-12-20T06:48:53;97218.75;;;-2.57;84.69
84683;BME280;74905;44.124;18.116;2023-12-20T06:51:19;97223.94;;;-2.46;84.20
84683;BME280;74905;44.124;18.116;2023-12-20T06:53:45;97219.75;;;-2.47;84.61
84683;BME280;74905;44.124;18.116;2023-12-20T06:56:11;97221.41;;;-2.44;84.85
84683;BME280;74905;44.124;18.116;2023-12-20T06:58:41;97221.28;;;-2.39;84.45
84683;BME280;74905;44.124;18.116;2023-12-20T07:01:12;97218.09;;;-2.30;84.25
84683;BME280;74905;44.124;18.116;2023-12-20T07:03:37;97221.75;;;-2.27;84.61
84683;BME280;74905;44.124;18.116;2023-12-20T07:06:03;97219.59;;;-2.21;83.86
84683;BME280;74905;44.124;18.116;2023-12-20T07:08:29;97221.28;;;-2.18;83.57
84683;BME280;74905;44.124;18.116;2023-12-20T07:10:55;97216.41;;;-2.12;83.73
84683;BME280;74905;44.124;18.116;2023-12-20T07:13:20;97214.94;;;-2.13;83.74
84683;BME280;74905;44.124;18.116;2023-12-20T07:15:47;97213.16;;;-2.10;83.67
84683;BME280;74905;44.124;18.116;2023-12-20T07:18:13;97209.22;;;-2.02;83.66
84683;BME280;74905;44.124;18.116;2023-12-20T07:20:38;97214.47;;;-2.04;83.58
84683;BME280;74905;44.124;18.116;2023-12-20T07:23:04;97207.81;;;-2.16;83.46
84683;BME280;74905;44.124;18.116;2023-12-20T07:25:30;97199.72;;;-2.08;83.35
84683;BME280;74905;44.124;18.116;2023-12-20T07:27:58;97204.56;;;-2.14;83.50
84683;BME280;74905;44.124;18.116;2023-12-20T07:30:24;97205.50;;;-2.12;84.06
84683;BME280;74905;44.124;18.116;2023-12-20T07:32:49;97206.69;;;-2.00;83.29
84683;BME280;74905;44.124;18.116;2023-12-20T07:35:15;97205.78;;;-1.95;83.09
84683;BME280;74905;44.124;18.116;2023-12-20T07:37:41;97200.13;;;-1.97;83.20
84683;BME280;74905;44.124;18.116;2023-12-20T07:40:07;97201.16;;;-2.07;82.62
84683;BME280;74905;44.124;18.116;2023-12-20T07:42:33;97195.00;;;-2.08;83.00
84683;BME280;74905;44.124;18.116;2023-12-20T07:44:59;97203.75;;;-2.02;83.16
84683;BME280;74905;44.124;18.116;2023-12-20T07:47:24;97198.59;;;-2.13;83.31
84683;BME280;74905;44.124;18.116;2023-12-20T07:49:51;97196.06;;;-2.11;83.03
84683;BME280;74905;44.124;18.116;2023-12-20T07:52:18;97194.59;;;-2.12;83.63
84683;BME280;74905;44.124;18.116;2023-12-20T07:54:45;97196.75;;;-2.18;83.17
84683;BME280;74905;44.124;18.116;2023-12-20T07:57:11;97193.41;;;-2.24;84.08
84683;BME280;74905;44.124;18.116;2023-12-20T07:59:37;97191.91;;;-2.33;84.11
84683;BME280;74905;44.124;18.116;2023-12-20T08:02:03;97193.50;;;-2.37;84.25
84683;BME280;74905;44.124;18.116;2023-12-20T08:04:29;97186.78;;;-2.36;84.56
84683;BME280;74905;44.124;18.116;2023-12-20T08:06:54;97200.06;;;-2.33;84.70
84683;BME280;74905;44.124;18.116;2023-12-20T08:09:20;97181.78;;;-2.25;84.42
84683;BME280;74905;44.124;18.116;2023-12-20T08:11:47;97180.38;;;-2.18;84.47
84683;BME280;74905;44.124;18.116;2023-12-20T08:14:13;97177.84;;;-2.16;83.37
84683;BME280;74905;44.124;18.116;2023-12-20T08:16:39;97179.97;;;-2.22;83.98
84683;BME280;74905;44.124;18.116;2023-12-20T08:19:05;97176.78;;;-2.13;84.29
84683;BME280;74905;44.124;18.116;2023-12-20T08:21:30;97172.78;;;-2.12;83.82
84683;BME280;74905;44.124;18.116;2023-12-20T08:23:56;97176.09;;;-2.06;84.08
84683;BME280;74905;44.124;18.116;2023-12-20T08:26:23;97178.00;;;-1.93;84.09
84683;BME280;74905;44.124;18.116;2023-12-20T08:28:50;97166.38;;;-1.86;83.72
84683;BME280;74905;44.124;18.116;2023-12-20T08:31:16;97170.97;;;-1.81;83.53
84683;BME280;74905;44.124;18.116;2023-12-20T08:33:47;97165.47;;;-1.89;83.28
84683;BME280;74905;44.124;18.116;2023-12-20T08:36:13;97166.19;;;-1.88;83.43
84683;BME280;74905;44.124;18.116;2023-12-20T08:38:39;97156.41;;;-1.83;83.81
84683;BME280;74905;44.124;18.116;2023-12-20T08:41:05;97161.38;;;-1.74;83.16
84683;BME280;74905;44.124;18.116;2023-12-20T08:43:31;97163.19;;;-1.69;82.65
84683;BME280;74905;44.124;18.116;2023-12-20T08:45:57;97169.34;;;-1.76;83.05
84683;BME280;74905;44.124;18.116;2023-12-20T08:48:23;97162.13;;;-1.66;82.87
84683;BME280;74905;44.124;18.116;2023-12-20T08:50:48;97162.28;;;-1.72;82.74
84683;BME280;74905;44.124;18.116;2023-12-20T08:53:15;97158.81;;;-1.80;82.74
84683;BME280;74905;44.124;18.116;2023-12-20T08:55:42;97161.69;;;-1.78;82.58
84683;BME280;74905;44.124;18.116;2023-12-20T08:58:08;97159.94;;;-1.68;82.35
84683;BME280;74905;44.124;18.116;2023-12-20T09:00:34;97150.06;;;-1.78;82.64
84683;BME280;74905;44.124;18.116;2023-12-20T09:03:01;97150.84;;;-1.70;82.94
84683;BME280;74905;44.124;18.116;2023-12-20T09:05:27;97150.34;;;-1.61;82.73
84683;BME280;74905;44.124;18.116;2023-12-20T09:07:54;97149.41;;;-1.64;82.25
84683;BME280;74905;44.124;18.116;2023-12-20T09:10:19;97151.97;;;-1.58;82.04
84683;BME280;74905;44.124;18.116;2023-12-20T09:12:51;97142.88;;;-1.61;82.38
84683;BME280;74905;44.124;18.116;2023-12-20T09:15:17;97131.25;;;-1.61;81.64
84683;BME280;74905;44.124;18.116;2023-12-20T09:17:43;97132.72;;;-1.53;81.92
84683;BME280;74905;44.124;18.116;2023-12-20T09:20:09;97125.06;;;-1.54;81.43
84683;BME280;74905;44.124;18.116;2023-12-20T09:22:35;97115.97;;;-1.49;82.07
84683;BME280;74905;44.124;18.116;2023-12-20T09:25:01;97108.38;;;-1.35;82.08
84683;BME280;74905;44.124;18.116;2023-12-20T09:27:29;97099.31;;;-1.23;81.63
84683;BME280;74905;44.124;18.116;2023-12-20T09:29:55;97103.28;;;-1.39;80.73
84683;BME280;74905;44.124;18.116;2023-12-20T09:32:21;97101.47;;;-1.29;81.43
84683;BME280;74905;44.124;18.116;2023-12-20T09:34:47;97099.47;;;-1.36;81.15
84683;BME280;74905;44.124;18.116;2023-12-20T09:37:14;97095.66;;;-1.33;82.07
84683;BME280;74905;44.124;18.116;2023-12-20T09:39:40;97091.69;;;-1.17;81.55
84683;BME280;74905;44.124;18.116;2023-12-20T09:42:06;97094.25;;;-0.96;81.11
84683;BME280;74905;44.124;18.116;2023-12-20T09:44:33;97082.59;;;-0.81;80.85
84683;BME280;74905;44.124;18.116;2023-12-20T09:47:03;97075.50;;;-0.69;80.22
84683;BME280;74905;44.124;18.116;2023-12-20T09:49:29;97072.97;;;-0.67;80.25
84683;BME280;74905;44.124;18.116;2023-12-20T09:51:56;97066.75;;;-0.67;79.86
84683;BME280;74905;44.124;18.116;2023-12-20T09:54:23;97064.94;;;-0.80;80.47
84683;BME280;74905;44.124;18.116;2023-12-20T09:56:50;97060.03;;;-0.82;80.67
84683;BME280;74905;44.124;18.116;2023-12-20T09:59:15;97055.47;;;-0.87;81.18
84683;BME280;74905;44.124;18.116;2023-12-20T10:01:42;97054.00;;;-0.80;81.05
84683;BME280;74905;44.124;18.116;2023-12-20T10:04:09;97045.44;;;-0.69;80.96
84683;BME280;74905;44.124;18.116;2023-12-20T10:06:46;97036.31;;;-0.56;80.07
84683;BME280;74905;44.124;18.116;2023-12-20T10:09:12;97041.41;;;-0.53;79.61
84683;BME280;74905;44.124;18.116;2023-12-20T10:11:39;97043.22;;;-0.55;80.24
84683;BME280;74905;44.124;18.116;2023-12-20T10:14:05;97032.44;;;-0.30;79.57
84683;BME280;74905;44.124;18.116;2023-12-20T10:16:32;97024.56;;;-0.26;78.67
84683;BME280;74905;44.124;18.116;2023-12-20T10:18:58;97025.31;;;-0.26;77.65
84683;BME280;74905;44.124;18.116;2023-12-20T10:21:24;97019.06;;;-0.19;78.46
84683;BME280;74905;44.124;18.116;2023-12-20T10:23:53;97020.22;;;-0.29;79.29
84683;BME280;74905;44.124;18.116;2023-12-20T10:26:20;97020.97;;;-0.29;79.11
84683;BME280;74905;44.124;18.116;2023-12-20T10:28:50;97017.47;;;-0.22;78.43
84683;BME280;74905;44.124;18.116;2023-12-20T10:31:35;97019.16;;;-0.42;79.38
84683;BME280;74905;44.124;18.116;2023-12-20T10:34:02;97009.84;;;-0.31;79.10
84683;BME280;74905;44.124;18.116;2023-12-20T10:36:29;97013.66;;;-0.34;78.77
84683;BME280;74905;44.124;18.116;2023-12-20T10:38:59;97009.84;;;-0.31;78.79
84683;BME280;74905;44.124;18.116;2023-12-20T10:41:28;97006.00;;;-0.35;79.17
84683;BME280;74905;44.124;18.116;2023-12-20T10:43:57;97001.25;;;-0.27;79.64
84683;BME280;74905;44.124;18.116;2023-12-20T10:46:24;97002.66;;;-0.11;78.42
84683;BME280;74905;44.124;18.116;2023-12-20T10:48:53;97000.63;;;-0.03;78.55
84683;BME280;74905;44.124;18.116;2023-12-20T10:51:20;97000.34;;;-0.22;79.51
84683;BME280;74905;44.124;18.116;2023-12-20T10:53:47;96987.94;;;-0.23;79.85
84683;BME280;74905;44.124;18.116;2023-12-20T10:56:17;96990.31;;;-0.20;79.80
84683;BME280;74905;44.124;18.116;2023-12-20T10:58:45;96997.19;;;-0.19;79.51
84683;BME280;74905;44.124;18.116;2023-12-20T11:01:13;96995.78;;;-0.20;80.28
84683;BME280;74905;44.124;18.116;2023-12-20T11:03:43;96993.19;;;-0.18;79.42
84683;BME280;74905;44.124;18.116;2023-12-20T11:09:12;96978.81;;;-0.26;79.35
84683;BME280;74905;44.124;18.116;2023-12-20T11:14:39;96968.09;;;-0.31;80.88
84683;BME280;74905;44.124;18.116;2023-12-20T11:17:09;96960.06;;;-0.29;80.18
84683;BME280;74905;44.124;18.116;2023-12-20T11:22:25;96954.25;;;-0.33;80.06
84683;BME280;74905;44.124;18.116;2023-12-20T11:24:52;96962.38;;;-0.18;80.24
84683;BME280;74905;44.124;18.116;2023-12-20T11:27:19;96955.09;;;-0.16;80.67
84683;BME280;74905;44.124;18.116;2023-12-20T11:29:52;96954.88;;;-0.10;79.98
84683;BME280;74905;44.124;18.116;2023-12-20T11:34:54;96960.22;;;0.13;79.26
84683;BME280;74905;44.124;18.116;2023-12-20T11:37:21;96960.28;;;0.05;79.32
84683;BME280;74905;44.124;18.116;2023-12-20T11:40:01;96952.63;;;0.04;79.33
84683;BME280;74905;44.124;18.116;2023-12-20T11:42:28;96944.22;;;0.02;78.87
84683;BME280;74905;44.124;18.116;2023-12-20T11:44:53;96949.28;;;0.13;79.40
84683;BME280;74905;44.124;18.116;2023-12-20T11:47:19;96949.84;;;0.11;78.50
84683;BME280;74905;44.124;18.116;2023-12-20T11:49:51;96938.94;;;0.04;79.40
84683;BME280;74905;44.124;18.116;2023-12-20T11:52:17;96944.97;;;0.02;79.54
84683;BME280;74905;44.124;18.116;2023-12-20T11:54:43;96937.28;;;0.08;79.61
84683;BME280;74905;44.124;18.116;2023-12-20T11:57:09;96929.22;;;0.10;79.22
84683;BME280;74905;44.124;18.116;2023-12-20T11:59:38;96923.31;;;0.21;78.80
84683;BME280;74905;44.124;18.116;2023-12-20T12:02:04;96931.75;;;0.16;78.28
84683;BME280;74905;44.124;18.116;2023-12-20T12:04:30;96915.41;;;0.08;79.35
84683;BME280;74905;44.124;18.116;2023-12-20T12:06:55;96919.13;;;0.20;79.22
84683;BME280;74905;44.124;18.116;2023-12-20T12:09:21;96911.94;;;0.32;78.71
84683;BME280;74905;44.124;18.116;2023-12-20T12:11:47;96915.66;;;0.27;78.35
84683;BME280;74905;44.124;18.116;2023-12-20T12:14:13;96915.97;;;0.31;78.73
84683;BME280;74905;44.124;18.116;2023-12-20T12:16:41;96910.91;;;0.28;78.35
84683;BME280;74905;44.124;18.116;2023-12-20T12:19:20;96908.28;;;0.38;78.17
84683;BME280;74905;44.124;18.116;2023-12-20T12:21:46;96905.06;;;0.49;77.95
84683;BME280;74905;44.124;18.116;2023-12-20T12:24:13;96898.81;;;0.56;76.99
84683;BME280;74905;44.124;18.116;2023-12-20T12:26:39;96896.84;;;0.73;77.32
84683;BME280;74905;44.124;18.116;2023-12-20T12:29:07;96881.63;;;0.80;76.66
84683;BME280;74905;44.124;18.116;2023-12-20T12:31:33;96885.47;;;0.77;76.74
84683;BME280;74905;44.124;18.116;2023-12-20T12:33:59;96885.34;;;0.75;76.93
84683;BME280;74905;44.124;18.116;2023-12-20T12:36:24;96877.91;;;0.85;76.17
84683;BME280;74905;44.124;18.116;2023-12-20T12:38:50;96873.66;;;0.92;76.37
84683;BME280;74905;44.124;18.116;2023-12-20T12:41:16;96873.41;;;0.97;76.38
84683;BME280;74905;44.124;18.116;2023-12-20T12:43:41;96863.59;;;0.94;76.00
84683;BME280;74905;44.124;18.116;2023-12-20T12:46:07;96863.59;;;0.94;76.56
84683;BME280;74905;44.124;18.116;2023-12-20T12:48:33;96864.25;;;1.02;75.19
84683;BME280;74905;44.124;18.116;2023-12-20T12:50:59;96865.38;;;0.99;76.36
84683;BME280;74905;44.124;18.116;2023-12-20T12:53:26;96857.13;;;1.17;75.22
84683;BME280;74905;44.124;18.116;2023-12-20T12:55:54;96862.38;;;1.05;76.44
84683;BME280;74905;44.124;18.116;2023-12-20T12:58:20;96859.72;;;0.97;75.77
84683;BME280;74905;44.124;18.116;2023-12-20T13:00:46;96856.66;;;0.93;76.68
84683;BME280;74905;44.124;18.116;2023-12-20T13:03:12;96862.38;;;1.05;76.42
84683;BME280;74905;44.124;18.116;2023-12-20T13:05:37;96856.91;;;1.22;75.68